createdAt,value
2019-04-06T00:01:30.730Z,11.70
2019-04-06T00:05:38.488Z,12.47
2019-04-06T00:09:46.183Z,13.37
2019-04-06T00:13:54.394Z,12.27
2019-04-06T00:18:02.955Z,13.50
2019-04-06T00:22:11.034Z,12.03
2019-04-06T00:26:19.012Z,12.73
2019-04-06T00:30:27.848Z,14.13
2019-04-06T00:34:35.924Z,10.07
2019-04-06T00:38:43.623Z,14.30
2019-04-06T00:42:51.750Z,14.33
2019-04-06T00:46:59.650Z,13.70
2019-04-06T00:51:07.270Z,14.13
2019-04-06T00:55:15.171Z,13.97
2019-04-06T00:59:23.489Z,14.77
2019-04-06T01:03:31.141Z,13.93
2019-04-06T01:07:39.327Z,13.90
2019-04-06T01:11:47.429Z,11.90
2019-04-06T01:15:55.047Z,10.80
2019-04-06T01:20:03.261Z,10.73
2019-04-06T01:24:11.503Z,10.80
2019-04-06T01:28:19.188Z,10.80
2019-04-06T01:32:27.295Z,10.77
2019-04-06T01:36:35.109Z,11.17
2019-04-06T01:40:43.540Z,10.80
2019-04-06T01:44:51.656Z,12.30
2019-04-06T01:48:59.563Z,11.53
2019-04-06T01:53:07.683Z,11.17
2019-04-06T01:57:16.035Z,8.67
2019-04-06T02:01:30.494Z,11.33
2019-04-06T02:05:38.473Z,10.03
2019-04-06T02:09:46.507Z,8.70
2019-04-06T02:13:54.115Z,9.77
2019-04-06T02:18:02.224Z,10.00
2019-04-06T02:22:10.348Z,11.03
2019-04-06T02:26:29.105Z,10.33
2019-04-06T02:30:31.500Z,10.77
2019-04-06T02:35:03.243Z,9.83
2019-04-06T02:39:30.121Z,8.87
2019-04-06T02:43:38.851Z,8.97
2019-04-06T02:47:46.583Z,8.63
2019-04-06T02:51:54.964Z,8.30
2019-04-06T02:56:02.944Z,9.00
2019-04-06T03:00:12.645Z,8.23
2019-04-06T03:04:20.469Z,7.60
2019-04-06T03:08:28.283Z,8.37
2019-04-06T03:12:36.082Z,8.63
2019-04-06T03:16:44.101Z,7.73
2019-04-06T03:20:51.641Z,8.30
2019-04-06T03:24:59.734Z,7.83
2019-04-06T03:29:08.536Z,7.83
2019-04-06T03:33:16.154Z,7.47
2019-04-06T03:37:24.376Z,7.70
2019-04-06T03:41:32.378Z,8.37
2019-04-06T03:45:40.325Z,8.23
2019-04-06T03:49:48.510Z,7.87
2019-04-06T03:53:57.729Z,7.60
2019-04-06T03:58:05.475Z,8.47
2019-04-06T04:02:13.876Z,8.90
2019-04-06T04:06:21.604Z,8.27
2019-04-06T04:10:37.859Z,8.77
2019-04-06T04:14:46.651Z,9.23
2019-04-06T04:18:54.345Z,10.83
2019-04-06T04:23:03.198Z,12.03
2019-04-06T04:27:11.111Z,9.43
2019-04-06T04:31:19.004Z,8.37
2019-04-06T04:35:27.245Z,8.17
2019-04-06T04:39:35.634Z,7.10
2019-04-06T04:43:43.472Z,7.43
2019-04-06T04:47:51.688Z,8.90
2019-04-06T04:52:00.933Z,8.73
2019-04-06T04:56:08.751Z,7.87
2019-04-06T05:00:17.473Z,7.70
2019-04-06T05:04:25.386Z,8.63
2019-04-06T05:08:33.107Z,8.37
2019-04-06T05:12:41.933Z,8.20
2019-04-06T05:16:49.524Z,8.57
2019-04-06T05:20:57.921Z,8.70
2019-04-06T05:25:07.703Z,13.97
2019-04-06T05:29:15.556Z,8.87
2019-04-06T05:33:23.875Z,8.10
2019-04-06T05:37:31.556Z,7.70
2019-04-06T05:41:39.097Z,6.73
2019-04-06T05:45:50.141Z,9.77
2019-04-06T05:49:57.884Z,10.20
2019-04-06T05:54:06.176Z,9.33
2019-04-06T05:58:14.222Z,8.30
2019-04-06T06:02:21.995Z,7.87
2019-04-06T06:06:29.836Z,8.30
2019-04-06T06:10:38.583Z,7.07
2019-04-06T06:14:47.391Z,7.53
2019-04-06T06:18:55.599Z,8.03
2019-04-06T06:23:03.578Z,8.47
2019-04-06T06:27:11.151Z,8.67
2019-04-06T06:31:19.444Z,8.47
2019-04-06T06:35:27.135Z,8.53
2019-04-06T06:39:34.959Z,8.60
2019-04-06T06:43:45.087Z,8.23
2019-04-06T06:47:52.859Z,8.17
2019-04-06T06:52:00.967Z,8.20
2019-04-06T06:56:08.850Z,4.83
2019-04-06T07:00:16.752Z,7.57
2019-04-06T07:04:24.901Z,8.27
2019-04-06T07:08:32.940Z,9.23
2019-04-06T07:12:40.607Z,6.67
2019-04-06T07:16:48.794Z,7.37
2019-04-06T07:20:56.825Z,7.30
2019-04-06T07:25:04.734Z,6.77
2019-04-06T07:29:12.853Z,7.50
2019-04-06T07:33:20.682Z,7.77
2019-04-06T07:37:28.498Z,9.47
2019-04-06T07:41:36.809Z,7.30
2019-04-06T07:45:44.620Z,9.80
2019-04-06T07:49:52.340Z,7.63
2019-04-06T07:53:59.943Z,7.90
2019-04-06T07:58:08.459Z,9.80
2019-04-06T08:02:16.240Z,10.37
2019-04-06T08:06:24.190Z,7.37
2019-04-06T08:10:32.116Z,10.60
2019-04-06T08:14:39.890Z,13.10
2019-04-06T08:18:47.745Z,8.77
2019-04-06T08:22:55.851Z,9.37
2019-04-06T08:27:04.139Z,8.97
2019-04-06T08:31:11.836Z,8.77
2019-04-06T08:35:25.955Z,6.37
2019-04-06T08:39:29.198Z,6.80
2019-04-06T08:43:37.003Z,6.57
2019-04-06T08:47:45.286Z,6.60
2019-04-06T08:51:52.856Z,6.37
2019-04-06T08:56:01.272Z,5.43
2019-04-06T09:00:10.395Z,5.93
2019-04-06T09:04:18.069Z,6.00
2019-04-06T09:08:26.269Z,5.63
2019-04-06T09:12:34.169Z,5.00
2019-04-06T09:16:41.889Z,6.80
2019-04-06T09:20:51.926Z,5.00
2019-04-06T09:24:59.878Z,5.33
2019-04-06T09:29:07.460Z,8.23
2019-04-06T09:33:15.764Z,5.23
2019-04-06T09:37:23.574Z,6.50
2019-04-06T09:41:31.430Z,5.60
2019-04-06T09:45:57.193Z,6.53
2019-04-06T09:50:30.367Z,6.17
2019-04-06T09:55:12.316Z,5.60
2019-04-06T09:59:36.154Z,6.33
2019-04-06T10:04:14.326Z,9.40
2019-04-06T10:08:32.623Z,5.70
2019-04-06T10:13:17.682Z,5.37
2019-04-06T10:17:43.650Z,5.53
2019-04-06T10:22:19.845Z,5.67
2019-04-06T10:26:52.699Z,4.53
2019-04-06T10:31:14.344Z,6.40
2019-04-06T10:35:43.983Z,4.90
2019-04-06T10:40:07.454Z,5.47
2019-04-06T10:44:32.981Z,4.93
2019-04-06T10:48:59.481Z,4.77
2019-04-06T10:53:35.553Z,4.53
2019-04-06T10:58:01.626Z,4.93
2019-04-06T11:02:27.740Z,5.53
2019-04-06T11:06:51.223Z,6.17
2019-04-06T11:11:33.242Z,5.63
2019-04-06T11:16:08.782Z,5.23
2019-04-06T11:20:42.070Z,5.83
2019-04-06T11:25:11.910Z,5.03
2019-04-06T11:29:39.980Z,7.30
2019-04-06T11:34:03.403Z,5.23
2019-04-06T11:38:35.981Z,5.70
2019-04-06T11:43:00.780Z,4.90
2019-04-06T11:47:18.621Z,5.83
2019-04-06T11:51:50.303Z,6.70
2019-04-06T11:56:16.000Z,5.67
2019-04-06T12:00:40.612Z,5.53
2019-04-06T12:05:25.505Z,4.90
2019-04-06T12:09:50.723Z,5.33
2019-04-06T12:14:16.465Z,5.93
2019-04-06T12:18:46.182Z,6.33
2019-04-06T12:23:13.259Z,5.37
2019-04-06T12:28:13.670Z,6.27
2019-04-06T12:32:43.254Z,6.10
2019-04-06T12:37:11.235Z,6.47
2019-04-06T12:41:41.148Z,7.40
2019-04-06T12:46:07.999Z,6.80
2019-04-06T12:50:37.883Z,7.53
2019-04-06T12:55:17.286Z,7.50
2019-04-06T12:59:45.074Z,7.90
2019-04-06T13:04:14.580Z,7.00
2019-04-06T13:08:41.028Z,6.50
2019-04-06T13:13:11.212Z,6.33
2019-04-06T13:17:29.200Z,9.70
2019-04-06T13:22:11.472Z,7.83
2019-04-06T13:26:35.603Z,6.97
2019-04-06T13:31:04.183Z,8.33
2019-04-06T13:35:28.615Z,16.00
2019-04-06T13:39:58.764Z,17.50
2019-04-06T13:44:28.475Z,10.70
2019-04-06T13:48:55.523Z,8.73
2019-04-06T13:53:36.791Z,8.47
2019-04-06T13:58:03.783Z,8.67
2019-04-06T14:02:37.454Z,8.57
2019-04-06T14:06:58.204Z,11.27
2019-04-06T14:11:40.813Z,9.00
2019-04-06T14:16:10.373Z,9.37
2019-04-06T14:20:55.054Z,10.03
2019-04-06T14:25:37.113Z,9.07
2019-04-06T14:30:21.889Z,10.77
2019-04-06T14:34:47.247Z,9.60
2019-04-06T14:39:21.884Z,10.83
2019-04-06T14:43:57.799Z,10.93
2019-04-06T14:48:12.279Z,10.53
2019-04-06T14:52:44.004Z,11.10
2019-04-06T14:57:10.207Z,9.07
2019-04-06T15:01:45.270Z,10.53
2019-04-06T15:06:24.752Z,8.57
2019-04-06T15:11:09.314Z,10.20
2019-04-06T15:15:31.017Z,9.30
2019-04-06T15:20:00.782Z,10.77
2019-04-06T15:24:42.928Z,9.00
2019-04-06T15:29:16.182Z,13.13
2019-04-06T15:33:41.910Z,12.10
2019-04-06T15:38:09.113Z,11.10
2019-04-06T15:42:35.665Z,12.30
2019-04-06T15:47:05.295Z,13.40
2019-04-06T15:51:26.226Z,9.23
2019-04-06T15:55:45.851Z,10.83
2019-04-06T16:00:16.600Z,22.87
2019-04-06T16:04:32.463Z,13.03
2019-04-06T16:08:46.246Z,12.83
2019-04-06T16:13:13.337Z,12.63
2019-04-06T16:17:34.984Z,9.77
2019-04-06T16:22:07.710Z,13.80
2019-04-06T16:26:25.540Z,14.10
2019-04-06T16:30:52.655Z,9.90
2019-04-06T16:35:25.097Z,25.30
2019-04-06T16:39:52.137Z,17.07
2019-04-06T16:44:21.871Z,15.50
2019-04-06T16:48:52.475Z,13.30
2019-04-06T16:53:34.328Z,16.03
2019-04-06T16:57:54.173Z,13.70
2019-04-06T17:02:29.834Z,10.50
2019-04-06T17:06:51.162Z,13.83
2019-04-06T17:11:17.609Z,18.07
2019-04-06T17:15:59.826Z,14.80
2019-04-06T17:20:27.285Z,12.53
2019-04-06T17:24:53.393Z,10.67
2019-04-06T17:29:20.244Z,9.40
2019-04-06T17:33:42.084Z,10.87
2019-04-06T17:38:18.405Z,11.87
2019-04-06T17:42:42.307Z,15.63
2019-04-06T17:47:18.060Z,13.27
2019-04-06T17:51:35.282Z,8.10
2019-04-06T17:55:58.976Z,13.10
2019-04-06T18:00:19.813Z,10.13
2019-04-06T18:04:50.186Z,10.43
2019-04-06T18:09:25.803Z,10.23
2019-04-06T18:13:52.538Z,14.57
2019-04-06T18:18:00.762Z,10.73
2019-04-06T18:22:08.867Z,8.70
2019-04-06T18:26:19.079Z,11.20
2019-04-06T18:30:26.251Z,9.00
2019-04-06T18:34:33.942Z,10.07
2019-04-06T18:38:48.717Z,8.03
2019-04-06T18:42:56.795Z,7.60
2019-04-06T18:47:04.839Z,8.97
2019-04-06T18:51:12.547Z,8.73
2019-04-06T18:55:20.557Z,8.50
2019-04-06T18:59:28.875Z,9.40
2019-04-06T19:03:37.079Z,8.83
2019-04-06T19:07:44.809Z,9.13
2019-04-06T19:11:55.632Z,9.50
2019-04-06T19:16:02.268Z,8.73
2019-04-06T19:20:10.530Z,8.80
2019-04-06T19:24:18.292Z,10.60
2019-04-06T19:28:26.447Z,9.87
2019-04-06T19:32:34.204Z,10.30
2019-04-06T19:36:42.225Z,10.27
2019-04-06T19:40:51.065Z,11.90
2019-04-06T19:44:59.189Z,8.80
2019-04-06T19:49:07.551Z,11.67
2019-04-06T19:53:16.607Z,11.40
2019-04-06T19:57:24.996Z,11.60
2019-04-06T20:01:33.063Z,10.90
2019-04-06T20:05:41.445Z,12.13
2019-04-06T20:09:50.053Z,9.97
2019-04-06T20:13:58.767Z,10.53
2019-04-06T20:18:07.011Z,10.90
2019-04-06T20:22:15.317Z,10.17
2019-04-06T20:26:23.932Z,10.17
2019-04-06T20:30:32.018Z,11.10
2019-04-06T20:34:39.869Z,11.17
2019-04-06T20:38:48.210Z,10.83
2019-04-06T20:42:56.611Z,18.17
2019-04-06T20:47:04.955Z,11.70
2019-04-06T20:51:12.940Z,11.90
2019-04-06T20:55:20.971Z,12.17
2019-04-06T20:59:29.480Z,11.13
2019-04-06T21:03:37.216Z,10.13
2019-04-06T21:07:45.130Z,11.60
2019-04-06T21:11:53.828Z,11.93
2019-04-06T21:16:02.235Z,11.63
2019-04-06T21:20:10.736Z,12.47
2019-04-06T21:24:18.307Z,11.80
2019-04-06T21:28:26.400Z,10.70
2019-04-06T21:32:34.125Z,9.80
2019-04-06T21:36:42.686Z,10.23
2019-04-06T21:40:51.800Z,10.67
2019-04-06T21:45:00.373Z,10.73
2019-04-06T21:49:09.683Z,11.43
2019-04-06T21:53:17.377Z,11.10
2019-04-06T21:57:26.275Z,12.57
2019-04-06T22:01:34.399Z,12.30
2019-04-06T22:05:42.717Z,11.90
2019-04-06T22:09:50.636Z,10.80
2019-04-06T22:13:59.041Z,9.17
2019-04-06T22:18:06.804Z,9.47
2019-04-06T22:22:14.788Z,10.17
2019-04-06T22:26:22.612Z,9.03
2019-04-06T22:30:30.526Z,9.27
2019-04-06T22:34:41.370Z,9.00
2019-04-06T22:38:48.174Z,8.97
2019-04-06T22:42:56.091Z,7.87
2019-04-06T22:47:03.779Z,8.77
2019-04-06T22:51:12.124Z,9.20
2019-04-06T22:55:20.061Z,8.53
2019-04-06T22:59:27.750Z,8.47
2019-04-06T23:04:13.409Z,8.33
2019-04-06T23:08:22.176Z,8.50
2019-04-06T23:12:30.447Z,9.23
2019-04-06T23:16:39.214Z,8.73
2019-04-06T23:20:47.329Z,11.23
2019-04-06T23:24:56.330Z,10.90
2019-04-06T23:29:06.198Z,11.87
2019-04-06T23:33:14.300Z,12.33
2019-04-06T23:37:22.285Z,10.80
2019-04-06T23:41:30.005Z,10.27
2019-04-06T23:45:37.933Z,11.23
2019-04-06T23:49:46.240Z,8.27
2019-04-06T23:53:54.349Z,7.93
2019-04-06T23:58:02.876Z,9.40
